METAR AND TAF INFORMATION
METAR FOR SVSA
ADDS - METARS form results

(0329 UTC 06 June 2020)
Data provider http://aviationweather.gov/metar/data/
 
Forecast for: SVSA (SAN ANTONIO TACH, VE)
Text: TAF SVSA 052200Z 0600/0700 20005KT 9999 DZ SCT016 TX31/19Z TN21/08Z
Forecast period: 0000 UTC 06 June 2020 to 0000 UTC 07 June 2020
Forecast type: FROM: standard forecast or significant change
Winds: from the SSW (200 degrees) at 6 MPH (5 knots; 2.6 m/s)
Visibility: 6 or more miles 10+ km)
Ceiling: at least 12,000 feet AGL
Clouds: scattered clouds at 1600 feet AGL
Weather: DZ  (moderate drizzle)
Text: TEMPO 0600/0604 27003KT 8000 DZ SCT020 BKN080
Forecast period: 0000 to 0400 UTC 06 June 2020
Forecast type: TEMPORARY: The following changes expected for less than half the time period
Winds: from the W (270 degrees) at 3 MPH (3 knots; 1.5 m/s)
Visibility: 5 miles (8 km)
Ceiling: 8000 feet AGL
Clouds: scattered clouds at 2000 feet AGL
broken clouds at 8000 feet AGL
Weather: DZ  (moderate drizzle)

 AIRPORT MAP

 RUNWAY INFORMATION
Runway 17 Runway length 6135 ft Runway width 131 ft
Runway elevation 0 ft Runway displaced threshold 0 ft Runway heading 166
Runway 35 Runway length 6135 ft Runway width 131 ft
Runway elevation 0 ft Runway displaced threshold 0 ft Runway heading 346

 AIRPORT FREQUENCIES
Type GND Name GND Frequency 121.9 MHZ
Type TWR Name TWR Frequency 118.5 MHZ

 AIRPORT NEAR NAVIGATION AIDS